Terminal Aerodrome Forecast
Issued by NWS

Current Version | Previous Version | Graphics & Text | Print | Product List | Glossary On
Versions: 1 2 3 4 5 6 7 8 9 10 11 12
000
FTUS41 KRNK 160539
TAFLWB
TAF
KLWB 160539Z 1606/1706 34015G22KT P6SM SCT026 OVC030
     FM160900 35008G15KT P6SM SCT035
     FM161600 10008KT P6SM SKC=

USA.gov is the U.S. government's official web portal to all federal, state and local government web resources and services.